TimeCST,TemperatureF,Dew PointF,Humidity,Sea Level PressureIn,VisibilityMPH,Wind Direction,Wind SpeedMPH,Gust SpeedMPH,PrecipitationIn,Events,Conditions,WindDirDegrees,DateUTC
12:15 AM,32.2,32.0,99,30.50,4.0,North,10.4,16.1,N/A,,Overcast,10,2013-11-23 06:15:00
12:35 AM,32.2,32.0,99,30.49,3.0,North,9.2,16.1,N/A,,Overcast,10,2013-11-23 06:35:00
12:55 AM,32.5,32.2,99,30.48,4.0,North,12.7,16.1,N/A,,Overcast,10,2013-11-23 06:55:00
1:15 AM,32.2,32.0,99,30.48,3.0,North,11.5,18.4,N/A,,Overcast,350,2013-11-23 07:15:00
1:35 AM,32.0,32.0,100,30.48,4.0,North,15.0,25.3,N/A,,Overcast,360,2013-11-23 07:35:00
1:55 AM,32.0,31.5,98,30.49,4.0,North,12.7,21.9,N/A,,Overcast,10,2013-11-23 07:55:00
2:15 AM,32.0,31.5,98,30.50,4.0,North,11.5,-,N/A,,Overcast,360,2013-11-23 08:15:00
2:35 AM,32.0,32.0,100,30.50,4.0,North,12.7,18.4,N/A,,Overcast,360,2013-11-23 08:35:00
2:55 AM,32.0,31.1,96,30.50,5.0,North,15.0,20.7,N/A,,Overcast,10,2013-11-23 08:55:00
3:15 AM,32.0,31.5,98,30.50,5.0,North,9.2,-,N/A,,Overcast,360,2013-11-23 09:15:00
3:35 AM,32.0,31.6,99,30.50,5.0,North,12.7,-,N/A,,Overcast,360,2013-11-23 09:35:00
3:55 AM,32.0,31.5,98,30.51,4.0,North,8.1,16.1,N/A,,Overcast,360,2013-11-23 09:55:00
4:15 AM,32.0,31.5,98,30.51,5.0,North,10.4,-,N/A,,Overcast,360,2013-11-23 10:15:00
4:35 AM,32.0,31.6,99,30.50,7.0,North,9.2,17.3,N/A,,Overcast,360,2013-11-23 10:35:00
4:55 AM,32.0,31.6,99,30.50,7.0,North,12.7,18.4,N/A,,Overcast,360,2013-11-23 10:55:00
5:15 AM,32.0,31.1,96,30.50,10.0,NNE,12.7,20.7,N/A,,Overcast,20,2013-11-23 11:15:00
5:35 AM,32.0,31.3,97,30.51,10.0,NNE,12.7,18.4,N/A,,Overcast,20,2013-11-23 11:35:00
5:55 AM,32.0,31.5,98,30.51,10.0,North,16.1,24.2,N/A,,Overcast,10,2013-11-23 11:55:00
6:15 AM,32.0,31.8,99,30.52,10.0,North,10.4,-,N/A,,Overcast,360,2013-11-23 12:15:00
6:35 AM,32.4,32.0,99,30.52,7.0,North,8.1,-,N/A,,Overcast,10,2013-11-23 12:35:00
6:55 AM,32.2,32.0,99,30.53,7.0,North,10.4,17.3,N/A,,Overcast,360,2013-11-23 12:55:00
7:15 AM,32.0,31.6,99,30.54,10.0,NNE,12.7,18.4,N/A,,Overcast,20,2013-11-23 13:15:00
7:35 AM,32.4,32.0,99,30.55,10.0,North,10.4,16.1,N/A,,Overcast,350,2013-11-23 13:35:00
7:55 AM,32.4,31.8,98,30.55,10.0,North,9.2,16.1,N/A,,Overcast,360,2013-11-23 13:55:00
8:15 AM,32.0,31.6,99,30.57,10.0,North,13.8,19.6,N/A,,Overcast,360,2013-11-23 14:15:00
8:35 AM,32.0,31.6,99,30.57,10.0,North,9.2,-,N/A,,Overcast,10,2013-11-23 14:35:00
8:55 AM,32.0,31.3,97,30.57,10.0,North,13.8,18.4,N/A,,Overcast,10,2013-11-23 14:55:00
9:15 AM,32.0,31.1,96,30.57,10.0,North,12.7,-,N/A,,Overcast,10,2013-11-23 15:15:00
9:35 AM,32.0,31.1,96,30.57,10.0,North,10.4,16.1,N/A,,Overcast,10,2013-11-23 15:35:00
9:55 AM,32.5,32.0,98,30.58,10.0,North,11.5,16.1,N/A,,Overcast,10,2013-11-23 15:55:00
10:15 AM,32.4,31.6,97,30.59,10.0,North,10.4,-,N/A,,Overcast,10,2013-11-23 16:15:00
10:33 AM,33.8,30.2,87,30.58,10.0,North,8.1,-,N/A,,Overcast,10,2013-11-23 16:33:00
10:35 AM,32.5,31.5,96,30.57,10.0,North,9.2,-,N/A,,Overcast,10,2013-11-23 16:35:00
10:55 AM,32.9,31.3,94,30.58,10.0,North,10.4,-,N/A,,Overcast,360,2013-11-23 16:55:00
11:15 AM,33.1,31.1,92,30.57,10.0,North,11.5,-,N/A,,Overcast,360,2013-11-23 17:15:00
11:35 AM,33.4,31.5,92,30.57,10.0,North,8.1,19.6,N/A,,Overcast,10,2013-11-23 17:35:00
11:55 AM,33.8,31.6,92,30.56,10.0,North,10.4,-,N/A,,Overcast,10,2013-11-23 17:55:00
12:15 PM,34.0,31.3,90,30.55,10.0,North,12.7,17.3,N/A,,Overcast,10,2013-11-23 18:15:00
12:35 PM,34.7,31.8,89,30.54,10.0,North,11.5,18.4,N/A,,Overcast,360,2013-11-23 18:35:00
12:55 PM,35.1,32.0,89,30.54,10.0,North,10.4,16.1,N/A,,Overcast,10,2013-11-23 18:55:00
1:15 PM,35.6,32.0,87,30.53,10.0,NNE,12.7,20.7,0.01,,Overcast,20,2013-11-23 19:15:00
1:35 PM,35.6,30.6,82,30.52,10.0,North,12.7,21.9,0.02,,Overcast,10,2013-11-23 19:35:00
1:55 PM,35.6,30.9,83,30.52,10.0,NNE,11.5,-,0.02,,Overcast,20,2013-11-23 19:55:00
2:15 PM,36.1,30.4,80,30.51,10.0,NNE,15.0,20.7,N/A,,Overcast,30,2013-11-23 20:15:00
2:35 PM,36.5,30.7,80,30.51,10.0,North,12.7,19.6,0.01,,Overcast,10,2013-11-23 20:35:00
2:55 PM,36.7,30.4,78,30.51,10.0,NNE,10.4,17.3,0.01,,Overcast,20,2013-11-23 20:55:00
3:15 PM,37.0,30.2,76,30.51,10.0,NNE,13.8,18.4,0.01,,Overcast,20,2013-11-23 21:15:00
3:35 PM,37.4,30.0,75,30.50,10.0,NNE,13.8,-,0.01,,Overcast,20,2013-11-23 21:35:00
3:55 PM,37.6,30.0,74,30.51,10.0,NNE,12.7,17.3,0.01,,Overcast,20,2013-11-23 21:55:00
4:15 PM,37.9,28.2,68,30.51,10.0,NNE,6.9,19.6,N/A,,Overcast,30,2013-11-23 22:15:00
4:35 PM,37.9,27.3,66,30.51,10.0,NNE,12.7,17.3,0.01,,Overcast,30,2013-11-23 22:35:00
4:55 PM,38.3,27.5,65,30.52,10.0,NNE,12.7,18.4,0.01,,Overcast,20,2013-11-23 22:55:00
5:15 PM,37.8,26.2,63,30.52,10.0,North,8.1,-,N/A,,Overcast,10,2013-11-23 23:15:00
5:35 PM,37.4,25.9,63,30.52,10.0,North,11.5,16.1,N/A,,Mostly Cloudy,10,2013-11-23 23:35:00
5:55 PM,37.0,25.3,63,30.52,10.0,NNE,11.5,19.6,0.01,,Scattered Clouds,30,2013-11-23 23:55:00
6:15 PM,37.4,25.5,62,30.52,10.0,NNE,9.2,16.1,N/A,,Mostly Cloudy,20,2013-11-24 00:15:00
6:35 PM,37.4,24.8,60,30.52,10.0,NNE,12.7,18.4,N/A,,Overcast,30,2013-11-24 00:35:00
6:55 PM,37.4,24.1,59,30.52,10.0,NNE,13.8,20.7,N/A,,Overcast,30,2013-11-24 00:55:00
7:15 PM,37.0,23.9,59,30.52,10.0,NNE,16.1,20.7,N/A,,Overcast,30,2013-11-24 01:15:00
7:35 PM,37.0,23.7,59,30.53,10.0,NNE,11.5,21.9,N/A,,Overcast,30,2013-11-24 01:35:00
7:55 PM,37.4,23.4,57,30.52,10.0,NE,16.1,19.6,N/A,,Overcast,40,2013-11-24 01:55:00
8:15 PM,37.4,23.0,56,30.52,10.0,NNE,12.7,18.4,N/A,,Overcast,30,2013-11-24 02:15:00
8:35 PM,37.6,22.6,55,30.53,10.0,NE,9.2,-,N/A,,Overcast,40,2013-11-24 02:35:00
8:55 PM,38.3,22.1,52,30.54,10.0,NE,6.9,-,0.01,,Overcast,40,2013-11-24 02:55:00
9:15 PM,38.3,21.7,51,30.54,10.0,NE,10.4,-,N/A,,Overcast,40,2013-11-24 03:15:00
9:35 PM,38.3,21.2,50,30.54,10.0,NE,11.5,19.6,N/A,,Overcast,40,2013-11-24 03:35:00
9:55 PM,38.3,20.3,48,30.55,10.0,NE,15.0,20.7,N/A,,Overcast,50,2013-11-24 03:55:00
10:15 PM,38.3,20.7,49,30.54,10.0,NE,10.4,17.3,N/A,,Overcast,50,2013-11-24 04:15:00
10:35 PM,38.3,20.8,50,30.54,10.0,NE,10.4,-,N/A,,Overcast,40,2013-11-24 04:35:00
10:55 PM,37.9,21.2,51,30.53,10.0,NE,13.8,-,N/A,,Overcast,50,2013-11-24 04:55:00
11:15 PM,37.8,21.7,53,30.54,10.0,NE,8.1,-,N/A,,Overcast,40,2013-11-24 05:15:00
11:35 PM,37.8,21.9,53,30.55,10.0,NE,8.1,-,N/A,,Overcast,50,2013-11-24 05:35:00
11:55 PM,37.8,21.9,53,30.55,10.0,NE,9.2,-,N/A,,Overcast,40,2013-11-24 05:55:00